createdAt,value
2019-03-22T00:01:15.294Z,66.10
2019-03-22T00:03:45.209Z,64.90
2019-03-22T00:06:15.168Z,56.73
2019-03-22T00:08:45.045Z,48.17
2019-03-22T00:11:15.208Z,47.43
2019-03-22T00:13:47.592Z,49.37
2019-03-22T00:16:19.197Z,51.87
2019-03-22T00:18:50.356Z,72.70
2019-03-22T00:21:41.911Z,69.13
2019-03-22T00:24:13.930Z,69.17
2019-03-22T00:26:43.907Z,70.80
2019-03-22T00:29:16.465Z,76.83
2019-03-22T00:31:47.053Z,80.57
2019-03-22T00:34:19.415Z,83.67
2019-03-22T00:36:51.776Z,79.07
2019-03-22T00:39:23.093Z,80.07
2019-03-22T00:41:54.570Z,79.77
2019-03-22T00:44:28.272Z,74.10
2019-03-22T00:47:02.903Z,70.33
2019-03-22T00:49:34.658Z,72.17
2019-03-22T00:52:25.059Z,64.80
2019-03-22T00:54:56.053Z,76.47
2019-03-22T00:57:28.736Z,77.67
2019-03-22T01:00:02.195Z,75.47
2019-03-22T01:02:34.732Z,72.83
2019-03-22T01:05:06.578Z,60.93
2019-03-22T01:07:38.745Z,43.80
2019-03-22T01:10:12.421Z,53.77
2019-03-22T01:12:43.896Z,49.33
2019-03-22T01:15:17.574Z,54.83
2019-03-22T01:17:49.500Z,49.20
2019-03-22T01:20:19.406Z,49.47
2019-03-22T01:22:53.176Z,62.90
2019-03-22T01:25:23.368Z,64.17
2019-03-22T01:27:55.897Z,63.90
2019-03-22T01:30:28.378Z,71.80
2019-03-22T01:32:59.514Z,65.93
2019-03-22T01:35:30.969Z,49.63
2019-03-22T01:38:02.215Z,59.43
2019-03-22T01:40:33.241Z,47.77
2019-03-22T01:43:04.445Z,64.53
2019-03-22T01:45:37.502Z,50.63
2019-03-22T01:48:09.660Z,56.47
2019-03-22T01:50:40.523Z,57.07
2019-03-22T01:53:13.618Z,53.90
2019-03-22T01:55:46.640Z,54.10
2019-03-22T01:58:16.716Z,53.00
2019-03-22T02:00:46.701Z,52.60
2019-03-22T02:03:18.981Z,50.10
2019-03-22T02:05:49.706Z,50.47
2019-03-22T02:08:19.662Z,55.87
2019-03-22T02:10:49.659Z,49.70
2019-03-22T02:13:20.982Z,54.50
2019-03-22T02:15:52.302Z,57.57
2019-03-22T02:18:23.238Z,59.07
2019-03-22T02:20:55.659Z,64.50
2019-03-22T02:23:29.822Z,53.07
2019-03-22T02:26:02.295Z,59.63
2019-03-22T02:28:33.214Z,56.47
2019-03-22T02:31:04.430Z,61.97
2019-03-22T02:33:56.326Z,57.43
2019-03-22T02:36:27.859Z,64.73
2019-03-22T02:38:59.066Z,68.23
2019-03-22T02:41:30.753Z,60.30
2019-03-22T02:44:03.067Z,59.33
2019-03-22T02:46:32.959Z,60.33
2019-03-22T02:49:02.349Z,54.43
2019-03-22T02:51:34.809Z,63.03
2019-03-22T02:54:04.177Z,69.07
2019-03-22T02:56:35.705Z,62.80
2019-03-22T02:59:09.551Z,69.40
2019-03-22T03:01:38.874Z,63.13
2019-03-22T03:04:10.407Z,66.00
2019-03-22T03:06:41.389Z,63.43
2019-03-22T03:09:11.555Z,79.63
2019-03-22T03:11:45.071Z,75.97
2019-03-22T03:14:16.169Z,74.73
2019-03-22T03:16:46.943Z,64.13
2019-03-22T03:19:16.297Z,69.47
2019-03-22T03:21:47.322Z,64.40
2019-03-22T03:24:20.598Z,61.47
2019-03-22T03:27:12.319Z,62.30
2019-03-22T03:29:44.558Z,69.47
2019-03-22T03:32:15.619Z,73.33
2019-03-22T03:34:46.153Z,70.70
2019-03-22T03:37:16.519Z,70.80
2019-03-22T03:42:26.132Z,63.43
2019-03-22T03:44:57.523Z,60.23
2019-03-22T03:47:29.172Z,65.97
2019-03-22T03:49:59.173Z,64.57
2019-03-22T03:52:29.144Z,65.80
2019-03-22T03:55:00.548Z,67.27
2019-03-22T03:57:31.877Z,69.53
2019-03-22T04:00:03.469Z,59.90
2019-03-22T04:02:33.383Z,69.87
2019-03-22T04:05:03.370Z,69.63
2019-03-22T04:07:34.567Z,64.87
2019-03-22T04:10:05.165Z,64.07
2019-03-22T04:12:36.351Z,66.03
2019-03-22T04:15:10.364Z,66.40
2019-03-22T04:17:41.776Z,55.70
2019-03-22T04:22:48.565Z,61.73
2019-03-22T04:25:22.321Z,66.17
2019-03-22T04:27:52.211Z,63.30
2019-03-22T04:30:45.490Z,67.60
2019-03-22T04:33:18.040Z,65.23
2019-03-22T04:35:48.991Z,67.83
2019-03-22T04:38:20.649Z,57.20
2019-03-22T04:40:57.942Z,60.80
2019-03-22T04:43:29.324Z,60.23
2019-03-22T04:46:00.616Z,65.57
2019-03-22T04:48:34.456Z,72.33
2019-03-22T04:51:08.138Z,66.20
2019-03-22T04:53:43.310Z,65.70
2019-03-22T04:56:16.694Z,70.93
2019-03-22T04:58:51.459Z,73.40
2019-03-22T05:01:26.661Z,75.67
2019-03-22T05:03:59.400Z,73.37
2019-03-22T05:06:30.075Z,71.40
2019-03-22T05:09:02.781Z,68.27
2019-03-22T05:11:32.942Z,66.27
2019-03-22T05:14:04.013Z,67.10
2019-03-22T05:16:38.484Z,70.57
2019-03-22T05:19:10.458Z,55.57
2019-03-22T05:21:44.007Z,50.70
2019-03-22T05:24:18.441Z,51.27
2019-03-22T05:26:51.241Z,60.07
2019-03-22T05:29:30.438Z,61.53
2019-03-22T05:32:07.674Z,64.67
2019-03-22T05:34:40.087Z,65.40
2019-03-22T05:37:30.646Z,65.27
2019-03-22T05:40:02.850Z,70.53
2019-03-22T05:42:35.626Z,89.63
2019-03-22T05:45:12.780Z,77.87
2019-03-22T05:47:45.394Z,70.33
2019-03-22T05:50:16.304Z,63.73
2019-03-22T05:52:46.235Z,63.40
2019-03-22T05:55:20.484Z,62.33
2019-03-22T05:57:51.918Z,86.40
2019-03-22T06:00:22.987Z,81.50
2019-03-22T06:02:59.234Z,96.20
2019-03-22T06:05:30.251Z,94.00
2019-03-22T06:08:00.266Z,100.57
2019-03-22T06:10:32.466Z,109.27
2019-03-22T06:13:03.582Z,101.07
2019-03-22T06:15:34.245Z,99.03
2019-03-22T06:18:05.294Z,96.00
2019-03-22T06:20:36.180Z,94.87
2019-03-22T06:23:08.397Z,78.83
2019-03-22T06:25:39.634Z,62.40
2019-03-22T06:28:11.087Z,52.87
2019-03-22T06:30:41.894Z,51.80
2019-03-22T06:33:14.325Z,44.33
2019-03-22T06:35:46.520Z,46.03
2019-03-22T06:38:18.836Z,52.27
2019-03-22T06:40:49.560Z,53.23
2019-03-22T06:43:20.815Z,71.73
2019-03-22T06:45:52.268Z,57.60
2019-03-22T06:48:22.155Z,63.90
2019-03-22T06:50:52.313Z,61.87
2019-03-22T06:53:23.615Z,54.80
2019-03-22T06:55:56.041Z,58.13
2019-03-22T06:58:27.004Z,55.90
2019-03-22T07:00:58.951Z,61.87
2019-03-22T07:03:30.049Z,62.63
2019-03-22T07:06:00.265Z,59.40
2019-03-22T07:08:31.328Z,52.97
2019-03-22T07:11:02.611Z,52.70
2019-03-22T07:16:26.236Z,52.90
2019-03-22T07:18:59.128Z,48.80
2019-03-22T07:21:34.121Z,51.23
2019-03-22T07:24:04.077Z,49.07
2019-03-22T07:26:35.545Z,54.00
2019-03-22T07:29:07.938Z,59.43
2019-03-22T07:31:39.306Z,65.23
2019-03-22T07:34:10.339Z,61.97
2019-03-22T07:36:40.355Z,56.53
2019-03-22T07:39:13.362Z,57.13
2019-03-22T07:41:45.766Z,60.90
2019-03-22T07:44:19.267Z,80.60
2019-03-22T07:46:54.168Z,73.63
2019-03-22T07:49:31.068Z,63.50
2019-03-22T07:52:04.788Z,56.40
2019-03-22T07:54:38.055Z,56.87
2019-03-22T07:57:09.411Z,57.50
2019-03-22T07:59:43.515Z,56.87
2019-03-22T08:02:16.122Z,60.90
2019-03-22T08:04:47.213Z,57.00
2019-03-22T08:07:17.047Z,58.13
2019-03-22T08:09:51.066Z,55.10
2019-03-22T08:12:20.709Z,55.50
2019-03-22T08:14:55.315Z,57.50
2019-03-22T08:17:29.962Z,58.37
2019-03-22T08:19:59.271Z,60.03
2019-03-22T08:22:30.556Z,60.70
2019-03-22T08:25:04.580Z,57.17
2019-03-22T08:27:34.548Z,62.00
2019-03-22T08:30:04.135Z,59.57
2019-03-22T08:32:36.897Z,60.00
2019-03-22T08:35:07.976Z,57.87
2019-03-22T08:37:37.414Z,56.97
2019-03-22T08:40:08.708Z,59.10
2019-03-22T08:42:41.323Z,60.13
2019-03-22T08:45:12.733Z,60.27
2019-03-22T08:47:43.315Z,60.67
2019-03-22T08:50:17.030Z,65.73
2019-03-22T08:52:48.938Z,79.17
2019-03-22T08:55:18.851Z,69.97
2019-03-22T08:57:53.309Z,70.10
2019-03-22T09:00:23.402Z,71.03
2019-03-22T09:02:54.999Z,57.50
2019-03-22T09:05:27.482Z,56.77
2019-03-22T09:07:57.103Z,57.60
2019-03-22T09:10:28.648Z,59.63
2019-03-22T09:13:01.579Z,57.77
2019-03-22T09:15:41.134Z,56.47
2019-03-22T09:18:18.395Z,54.40
2019-03-22T09:20:50.618Z,54.93
2019-03-22T09:23:21.518Z,59.33
2019-03-22T09:25:53.930Z,60.27
2019-03-22T09:28:25.257Z,62.83
2019-03-22T09:31:09.816Z,65.20
2019-03-22T09:33:34.938Z,66.60
2019-03-22T09:36:07.348Z,58.53
2019-03-22T09:38:39.926Z,59.00
2019-03-22T09:41:15.215Z,55.13
2019-03-22T09:43:47.503Z,58.63
2019-03-22T09:46:19.515Z,55.80
2019-03-22T09:48:50.646Z,55.33
2019-03-22T09:51:20.768Z,55.83
2019-03-22T09:53:53.359Z,57.43
2019-03-22T09:56:24.151Z,55.60
2019-03-22T09:58:55.358Z,53.27
2019-03-22T10:01:25.418Z,54.83
2019-03-22T10:04:00.739Z,52.27
2019-03-22T10:06:35.790Z,54.17
2019-03-22T10:09:11.095Z,51.23
2019-03-22T10:11:42.652Z,64.67
2019-03-22T10:14:15.052Z,82.27
2019-03-22T10:16:47.688Z,46.77
2019-03-22T10:19:20.531Z,42.67
2019-03-22T10:21:54.348Z,50.23
2019-03-22T10:24:31.884Z,82.37
2019-03-22T10:27:05.217Z,40.20
2019-03-22T10:29:37.502Z,35.40
2019-03-22T10:32:10.152Z,33.20
2019-03-22T10:34:40.969Z,32.90
2019-03-22T10:37:19.878Z,32.80
2019-03-22T10:39:55.546Z,31.57
2019-03-22T10:42:28.720Z,29.47
2019-03-22T10:45:00.374Z,31.63
2019-03-22T10:47:31.372Z,32.07
2019-03-22T10:50:01.361Z,32.17
2019-03-22T10:52:33.492Z,31.93
2019-03-22T10:55:17.740Z,33.10
2019-03-22T10:57:40.489Z,34.33
2019-03-22T11:00:13.527Z,32.27
2019-03-22T11:02:48.740Z,35.77
2019-03-22T11:05:19.948Z,29.17
2019-03-22T11:07:51.122Z,26.10
2019-03-22T11:10:24.328Z,25.90
2019-03-22T11:12:56.159Z,27.13
2019-03-22T11:15:28.297Z,27.80
2019-03-22T11:17:59.510Z,27.90
2019-03-22T11:20:51.440Z,27.30
2019-03-22T11:23:25.078Z,27.67
2019-03-22T11:26:04.176Z,28.50
2019-03-22T11:28:32.017Z,28.43
2019-03-22T11:31:04.948Z,27.43
2019-03-22T11:33:36.117Z,28.60
2019-03-22T11:36:09.070Z,29.00
2019-03-22T11:38:41.063Z,30.83
2019-03-22T11:41:12.068Z,30.83
2019-03-22T11:43:43.334Z,32.20
2019-03-22T11:46:16.816Z,33.90
2019-03-22T11:48:48.359Z,32.43
2019-03-22T11:51:18.494Z,34.10
2019-03-22T11:53:50.220Z,38.70
2019-03-22T11:56:20.386Z,36.30
2019-03-22T11:58:50.317Z,35.77
2019-03-22T12:01:22.620Z,35.93
2019-03-22T12:03:54.014Z,35.63
2019-03-22T12:09:01.040Z,37.60
2019-03-22T12:14:14.338Z,36.67
2019-03-22T12:16:45.335Z,36.23
2019-03-22T12:19:15.587Z,36.43
2019-03-22T12:21:49.043Z,36.47
2019-03-22T12:24:19.838Z,38.67
2019-03-22T12:26:54.040Z,38.97
2019-03-22T12:29:24.015Z,37.53
2019-03-22T12:31:56.183Z,40.17
2019-03-22T12:34:27.195Z,37.60
2019-03-22T12:36:57.096Z,36.03
2019-03-22T12:39:28.148Z,37.40
2019-03-22T12:42:04.037Z,37.37
2019-03-22T12:44:35.848Z,35.33
2019-03-22T12:47:08.237Z,37.10
2019-03-22T12:49:39.524Z,35.40
2019-03-22T12:52:08.918Z,33.10
2019-03-22T12:54:42.070Z,29.07
2019-03-22T12:57:15.603Z,27.07
2019-03-22T12:59:50.379Z,36.10
2019-03-22T13:02:19.739Z,30.77
2019-03-22T13:04:53.786Z,31.73
2019-03-22T13:07:26.210Z,43.40
2019-03-22T13:09:58.799Z,72.73
2019-03-22T13:12:32.227Z,87.70
2019-03-22T13:15:06.315Z,33.67
2019-03-22T13:17:44.502Z,31.63
2019-03-22T13:20:16.784Z,30.73
2019-03-22T13:22:48.505Z,30.37
2019-03-22T13:25:21.526Z,28.70
2019-03-22T13:27:52.234Z,29.83
2019-03-22T13:30:34.079Z,64.03
2019-03-22T13:33:04.060Z,38.73
2019-03-22T13:35:35.044Z,50.57
2019-03-22T13:38:08.611Z,33.03
2019-03-22T13:40:40.307Z,30.40
2019-03-22T13:43:11.460Z,32.27
2019-03-22T13:45:46.272Z,35.33
2019-03-22T13:48:17.697Z,29.43
2019-03-22T13:50:51.535Z,31.23
2019-03-22T13:53:22.104Z,28.90
2019-03-22T13:55:57.811Z,30.40
2019-03-22T13:58:30.303Z,32.40
2019-03-22T14:01:01.816Z,32.30
2019-03-22T14:03:33.225Z,35.47
2019-03-22T14:06:04.577Z,31.93
2019-03-22T14:08:35.588Z,34.90
2019-03-22T14:11:06.889Z,29.97
2019-03-22T14:13:41.723Z,32.13
2019-03-22T14:16:14.167Z,61.07
2019-03-22T14:18:43.926Z,43.53
2019-03-22T14:21:16.380Z,43.17
2019-03-22T14:23:47.880Z,35.87
2019-03-22T14:26:20.475Z,36.47
2019-03-22T14:28:53.699Z,34.17
2019-03-22T14:31:28.983Z,33.80
2019-03-22T14:34:02.405Z,40.67
2019-03-22T14:36:41.196Z,66.57
2019-03-22T14:39:14.072Z,189.17
2019-03-22T14:41:45.243Z,205.50
2019-03-22T14:44:24.990Z,50.97
2019-03-22T14:46:50.893Z,40.27
2019-03-22T14:49:30.586Z,47.77
2019-03-22T14:52:00.716Z,52.63
2019-03-22T14:54:32.710Z,43.93
2019-03-22T14:57:08.155Z,36.33
2019-03-22T14:59:38.076Z,58.73
2019-03-22T15:02:10.893Z,37.43
2019-03-22T15:04:42.666Z,173.33
2019-03-22T15:07:19.963Z,65.70
2019-03-22T15:09:50.335Z,50.63
2019-03-22T15:12:23.669Z,50.10
2019-03-22T15:14:58.567Z,72.43
2019-03-22T15:17:33.293Z,39.97
2019-03-22T15:20:10.655Z,42.40
2019-03-22T15:22:58.142Z,35.23
2019-03-22T15:25:33.593Z,41.10
2019-03-22T15:28:21.313Z,42.00
2019-03-22T15:31:09.208Z,45.87
2019-03-22T15:33:42.257Z,42.10
2019-03-22T15:36:23.612Z,53.63
2019-03-22T15:39:11.982Z,44.53
2019-03-22T15:41:43.079Z,47.53
2019-03-22T15:44:15.877Z,52.63
2019-03-22T15:46:45.800Z,47.63
2019-03-22T15:49:15.664Z,52.17
2019-03-22T15:51:49.768Z,44.83
2019-03-22T15:54:21.451Z,43.50
2019-03-22T15:56:54.913Z,40.20
2019-03-22T15:59:27.571Z,44.47
2019-03-22T16:02:01.197Z,60.83
2019-03-22T16:04:32.398Z,79.60
2019-03-22T16:07:04.359Z,47.37
2019-03-22T16:09:40.360Z,49.77
2019-03-22T16:12:32.413Z,51.17
2019-03-22T16:15:03.471Z,48.50
2019-03-22T16:17:33.835Z,55.70
2019-03-22T16:20:07.177Z,50.77
2019-03-22T16:22:39.287Z,52.17
2019-03-22T16:25:12.010Z,53.37
2019-03-22T16:27:42.822Z,54.53
2019-03-22T16:30:15.493Z,56.83
2019-03-22T16:32:46.625Z,50.93
2019-03-22T16:35:21.092Z,49.83
2019-03-22T16:37:52.320Z,50.13
2019-03-22T16:40:24.370Z,50.20
2019-03-22T16:42:58.365Z,49.97
2019-03-22T16:45:38.016Z,47.90
2019-03-22T16:48:09.585Z,49.60
2019-03-22T16:50:42.561Z,50.13
2019-03-22T16:53:14.584Z,50.77
2019-03-22T16:55:48.265Z,50.97
2019-03-22T16:58:19.993Z,54.13
2019-03-22T17:00:51.573Z,74.30
2019-03-22T17:03:22.530Z,82.97
2019-03-22T17:05:54.862Z,98.77
2019-03-22T17:08:27.339Z,121.50
2019-03-22T17:11:00.777Z,130.00
2019-03-22T17:13:30.010Z,141.70
2019-03-22T17:16:02.087Z,133.80
2019-03-22T17:18:34.466Z,109.80
2019-03-22T17:21:06.740Z,189.33
2019-03-22T17:23:36.627Z,113.60
2019-03-22T17:26:06.519Z,98.07
2019-03-22T17:28:38.285Z,65.20
2019-03-22T17:31:09.418Z,57.03
2019-03-22T17:33:44.367Z,49.93
2019-03-22T17:36:17.449Z,51.13
2019-03-22T17:38:48.645Z,75.90
2019-03-22T17:41:18.515Z,67.50
2019-03-22T17:43:52.847Z,58.90
2019-03-22T17:46:26.668Z,56.77
2019-03-22T17:49:02.641Z,61.50
2019-03-22T17:51:36.951Z,51.87
2019-03-22T17:54:10.723Z,59.00
2019-03-22T17:56:40.533Z,62.27
2019-03-22T17:59:11.629Z,60.93
2019-03-22T18:01:41.567Z,77.27
2019-03-22T18:04:13.338Z,74.10
2019-03-22T18:06:43.265Z,56.83
2019-03-22T18:09:13.264Z,46.73
2019-03-22T18:11:43.334Z,54.60
2019-03-22T18:14:17.818Z,58.10
2019-03-22T18:16:51.970Z,81.53
2019-03-22T18:19:23.044Z,65.17
2019-03-22T18:21:54.511Z,75.27
2019-03-22T18:24:25.355Z,62.23
2019-03-22T18:26:55.842Z,49.30
2019-03-22T18:29:28.468Z,56.10
2019-03-22T18:31:59.562Z,100.77
2019-03-22T18:34:34.468Z,164.10
2019-03-22T18:37:02.993Z,187.43
2019-03-22T18:39:32.247Z,121.03
2019-03-22T18:42:03.335Z,161.43
2019-03-22T18:44:34.542Z,121.60
2019-03-22T18:47:08.636Z,120.33
2019-03-22T18:49:40.896Z,115.47
2019-03-22T18:52:12.045Z,123.53
2019-03-22T18:54:44.234Z,133.07
2019-03-22T18:57:19.367Z,123.23
2019-03-22T18:59:50.473Z,135.27
2019-03-22T19:02:24.097Z,108.73
2019-03-22T19:04:59.963Z,177.13
2019-03-22T19:07:34.621Z,140.70
2019-03-22T19:10:05.903Z,291.00
2019-03-22T19:12:38.241Z,126.83
2019-03-22T19:15:28.906Z,89.17
2019-03-22T19:18:00.115Z,254.77
2019-03-22T19:20:31.383Z,242.10
2019-03-22T19:23:05.395Z,237.90
2019-03-22T19:25:36.640Z,205.70
2019-03-22T19:28:09.196Z,112.17
2019-03-22T19:30:38.560Z,75.07
2019-03-22T19:33:08.424Z,90.23
2019-03-22T19:35:38.439Z,128.90
2019-03-22T19:38:13.147Z,361.23
2019-03-22T19:40:45.732Z,357.30
2019-03-22T19:43:16.721Z,183.87
2019-03-22T19:45:49.207Z,100.63
2019-03-22T19:48:19.636Z,52.17
2019-03-22T19:50:51.949Z,51.33
2019-03-22T19:53:25.091Z,50.73
2019-03-22T19:55:56.224Z,62.50
2019-03-22T19:58:26.090Z,82.63
2019-03-22T20:00:57.046Z,120.10
2019-03-22T20:03:27.930Z,83.17
2019-03-22T20:06:02.483Z,66.37
2019-03-22T20:08:33.852Z,149.03
2019-03-22T20:11:05.147Z,132.73
2019-03-22T20:13:36.267Z,156.03
2019-03-22T20:16:07.844Z,143.43
2019-03-22T20:18:39.109Z,131.67
2019-03-22T20:21:11.238Z,130.70
2019-03-22T20:23:49.566Z,111.70
2019-03-22T20:26:16.130Z,104.03
2019-03-22T20:28:49.535Z,110.03
2019-03-22T20:31:20.233Z,103.60
2019-03-22T20:33:53.040Z,86.03
2019-03-22T20:36:23.971Z,70.03
2019-03-22T20:38:57.768Z,88.93
2019-03-22T20:41:27.795Z,126.47
2019-03-22T20:44:01.111Z,115.30
2019-03-22T20:46:34.174Z,67.10
2019-03-22T20:49:05.180Z,64.23
2019-03-22T20:51:35.132Z,71.27
2019-03-22T20:54:09.013Z,64.73
2019-03-22T20:56:38.894Z,81.00
2019-03-22T20:59:10.233Z,113.23
2019-03-22T21:01:42.671Z,128.33
2019-03-22T21:04:14.281Z,142.90
2019-03-22T21:06:48.984Z,159.27
2019-03-22T21:09:21.474Z,90.33
2019-03-22T21:11:54.081Z,81.63
2019-03-22T21:14:24.051Z,81.50
2019-03-22T21:16:55.818Z,86.90
2019-03-22T21:19:28.201Z,83.50
2019-03-22T21:21:58.185Z,83.97
2019-03-22T21:24:28.056Z,228.03
2019-03-22T21:26:59.525Z,288.20
2019-03-22T21:29:30.481Z,239.07
2019-03-22T21:32:01.750Z,253.00
2019-03-22T21:34:33.691Z,216.00
2019-03-22T21:37:04.946Z,299.90
2019-03-22T21:39:35.877Z,116.37
2019-03-22T21:42:08.683Z,261.43
2019-03-22T21:44:40.153Z,257.03
2019-03-22T21:47:12.033Z,159.27
2019-03-22T21:49:43.637Z,117.97
2019-03-22T21:52:14.827Z,115.00
2019-03-22T21:54:45.737Z,105.93
2019-03-22T21:57:16.962Z,126.17
2019-03-22T21:59:49.883Z,105.83
2019-03-22T22:02:19.953Z,129.10
2019-03-22T22:04:53.125Z,121.40
2019-03-22T22:07:23.060Z,107.30
2019-03-22T22:09:54.945Z,95.53
2019-03-22T22:12:28.986Z,92.17
2019-03-22T22:15:02.477Z,84.50
2019-03-22T22:17:34.345Z,68.20
2019-03-22T22:20:08.652Z,59.83
2019-03-22T22:22:38.729Z,55.87
2019-03-22T22:25:11.657Z,57.40
2019-03-22T22:27:41.594Z,51.27
2019-03-22T22:30:12.845Z,71.93
2019-03-22T22:32:43.879Z,62.43
2019-03-22T22:35:16.894Z,54.67
2019-03-22T22:37:49.483Z,59.27
2019-03-22T22:40:20.912Z,53.03
2019-03-22T22:42:51.887Z,71.07
2019-03-22T22:45:23.968Z,85.73
2019-03-22T22:48:17.077Z,72.57
2019-03-22T22:50:48.721Z,73.17
2019-03-22T22:53:18.907Z,75.13
2019-03-22T22:55:50.447Z,71.97
2019-03-22T22:58:22.775Z,70.50
2019-03-22T23:00:55.229Z,72.50
2019-03-22T23:03:26.888Z,63.43
2019-03-22T23:06:05.317Z,61.67
2019-03-22T23:08:30.937Z,66.43
2019-03-22T23:11:04.128Z,66.20
2019-03-22T23:13:34.065Z,53.30
2019-03-22T23:16:06.843Z,55.23
2019-03-22T23:18:38.730Z,55.00
2019-03-22T23:21:13.214Z,54.93
2019-03-22T23:23:43.072Z,51.73
2019-03-22T23:26:12.952Z,52.07
2019-03-22T23:28:44.354Z,48.57
2019-03-22T23:31:16.102Z,49.17
2019-03-22T23:33:48.526Z,44.93
2019-03-22T23:36:20.515Z,50.87
2019-03-22T23:38:54.455Z,50.33
2019-03-22T23:41:25.374Z,51.03
2019-03-22T23:43:54.596Z,44.13
2019-03-22T23:46:27.203Z,44.07
2019-03-22T23:48:58.194Z,46.13
2019-03-22T23:51:30.803Z,46.67
2019-03-22T23:54:04.399Z,44.10
2019-03-22T23:56:34.355Z,48.67
2019-03-22T23:59:05.992Z,47.30
